createdAt,value
2022-08-17T00:02:25.253Z,30.53
2022-08-17T00:04:55.062Z,30.37
2022-08-17T00:07:22.596Z,30.36
2022-08-17T00:09:49.780Z,30.52
2022-08-17T00:12:51.236Z,30.34
2022-08-17T00:15:05.049Z,30.24
2022-08-17T00:17:32.469Z,30.31
2022-08-17T00:20:02.315Z,30.64
2022-08-17T00:22:35.328Z,31.17
2022-08-17T00:25:05.342Z,31.81
2022-08-17T00:27:33.638Z,31.07
2022-08-17T00:30:00.778Z,31.12
2022-08-17T00:33:22.799Z,31.13
2022-08-17T00:35:17.549Z,30.93
2022-08-17T00:37:44.983Z,30.78
2022-08-17T00:40:13.269Z,30.50
2022-08-17T00:42:40.614Z,30.68
2022-08-17T00:45:09.272Z,30.52
2022-08-17T00:47:36.463Z,30.56
2022-08-17T00:50:04.900Z,30.76
2022-08-17T00:52:36.197Z,31.01
2022-08-17T00:55:03.957Z,31.00
2022-08-17T00:57:32.162Z,31.05
2022-08-17T01:00:03.239Z,31.08
2022-08-17T01:02:40.445Z,31.08
2022-08-17T01:05:10.840Z,31.11
2022-08-17T01:07:38.152Z,31.44
2022-08-17T01:10:06.188Z,31.79
2022-08-17T01:12:34.493Z,31.83
2022-08-17T01:15:01.650Z,32.69
2022-08-17T01:17:29.038Z,32.42
2022-08-17T01:19:56.668Z,32.40
2022-08-17T01:22:24.510Z,32.13
2022-08-17T01:25:02.584Z,33.18
2022-08-17T01:27:30.075Z,32.94
2022-08-17T01:29:58.992Z,32.13
2022-08-17T01:32:26.634Z,31.86
2022-08-17T01:34:54.139Z,31.76
2022-08-17T01:37:21.695Z,31.72
2022-08-17T01:39:50.551Z,31.85
2022-08-17T01:42:31.032Z,31.68
2022-08-17T01:44:59.034Z,31.92
2022-08-17T01:47:26.451Z,31.93
2022-08-17T01:49:56.977Z,31.50
2022-08-17T01:52:24.135Z,31.96
2022-08-17T01:54:51.639Z,32.61
2022-08-17T01:57:18.784Z,32.73
2022-08-17T01:59:45.970Z,32.37
2022-08-17T02:02:13.409Z,32.21
2022-08-17T02:04:58.620Z,32.25
2022-08-17T02:07:26.162Z,32.05
2022-08-17T02:09:54.323Z,31.82
2022-08-17T02:12:39.265Z,31.84
2022-08-17T02:15:12.374Z,31.96
2022-08-17T02:17:40.843Z,32.19
2022-08-17T02:20:09.209Z,32.57
2022-08-17T02:22:36.523Z,32.47
2022-08-17T02:25:04.626Z,32.63
2022-08-17T02:27:32.777Z,32.84
2022-08-17T02:29:59.915Z,32.89
2022-08-17T02:32:28.644Z,32.94
2022-08-17T02:34:56.864Z,32.91
2022-08-17T02:37:24.566Z,33.04
2022-08-17T02:39:52.152Z,33.23
2022-08-17T02:42:19.370Z,33.27
2022-08-17T02:44:46.742Z,33.23
2022-08-17T02:47:14.191Z,33.30
2022-08-17T02:49:46.255Z,33.45
2022-08-17T02:52:43.003Z,33.62
2022-08-17T02:55:30.900Z,33.48
2022-08-17T02:57:58.516Z,33.51
2022-08-17T03:00:28.833Z,33.68
2022-08-17T03:02:56.698Z,33.27
2022-08-17T03:05:24.897Z,33.48
2022-08-17T03:07:52.195Z,33.29
2022-08-17T03:10:19.614Z,33.55
2022-08-17T03:12:47.307Z,33.87
2022-08-17T03:15:15.482Z,33.70
2022-08-17T03:17:42.749Z,33.66
2022-08-17T03:20:10.531Z,33.59
2022-08-17T03:22:38.628Z,33.62
2022-08-17T03:25:10.647Z,33.96
2022-08-17T03:27:41.964Z,33.93
2022-08-17T03:30:10.668Z,33.92
2022-08-17T03:32:39.149Z,33.45
2022-08-17T03:35:06.514Z,33.27
2022-08-17T03:37:33.664Z,33.49
2022-08-17T03:40:01.315Z,33.51
2022-08-17T03:42:32.293Z,33.65
2022-08-17T03:45:00.755Z,33.40
2022-08-17T03:47:46.706Z,33.05
2022-08-17T03:50:33.240Z,33.47
2022-08-17T03:53:19.525Z,33.54
2022-08-17T03:56:05.388Z,33.79
2022-08-17T03:58:32.566Z,33.59
2022-08-17T04:01:00.016Z,33.75
2022-08-17T04:03:27.479Z,33.49
2022-08-17T04:05:54.628Z,33.39
2022-08-17T04:08:21.801Z,33.76
2022-08-17T04:10:49.247Z,33.45
2022-08-17T04:13:16.406Z,33.54
2022-08-17T04:15:52.523Z,33.54
2022-08-17T04:18:19.985Z,33.83
2022-08-17T04:20:47.156Z,33.80
2022-08-17T04:23:15.812Z,34.18
2022-08-17T04:25:45.045Z,34.11
2022-08-17T04:28:16.133Z,33.80
2022-08-17T04:30:45.248Z,33.72
2022-08-17T04:33:14.154Z,33.69
2022-08-17T04:35:42.493Z,33.41
2022-08-17T04:38:12.100Z,32.44
2022-08-17T04:40:57.996Z,32.03
2022-08-17T04:43:26.471Z,31.62
2022-08-17T04:45:56.544Z,30.94
2022-08-17T04:48:35.448Z,30.14
2022-08-17T04:51:09.913Z,29.69
2022-08-17T04:53:38.172Z,29.53
2022-08-17T04:56:05.729Z,29.49
2022-08-17T04:58:32.969Z,30.58
2022-08-17T05:01:00.275Z,29.97
2022-08-17T05:03:27.829Z,29.65
2022-08-17T05:05:54.989Z,29.28
2022-08-17T05:08:22.162Z,29.59
2022-08-17T05:10:50.129Z,29.93
2022-08-17T05:13:18.944Z,28.96
2022-08-17T05:15:47.764Z,27.53
2022-08-17T05:18:16.064Z,27.36
2022-08-17T05:20:43.358Z,28.70
2022-08-17T05:23:12.528Z,28.94
2022-08-17T05:25:40.821Z,30.30
2022-08-17T05:28:08.507Z,30.59
2022-08-17T05:30:37.161Z,31.39
2022-08-17T05:33:06.104Z,31.76
2022-08-17T05:35:34.102Z,32.04
2022-08-17T05:38:01.715Z,33.30
2022-08-17T05:40:32.877Z,32.59
2022-08-17T05:43:04.714Z,32.22
2022-08-17T05:45:55.115Z,31.92
2022-08-17T05:48:19.606Z,31.78
2022-08-17T05:50:46.979Z,32.22
2022-08-17T05:53:26.469Z,31.55
2022-08-17T05:56:01.050Z,31.89
2022-08-17T05:58:31.388Z,30.57
2022-08-17T06:00:58.808Z,31.61
2022-08-17T06:03:26.237Z,31.50
2022-08-17T06:06:08.391Z,30.10
2022-08-17T06:08:45.384Z,29.56
2022-08-17T06:11:37.400Z,28.67
2022-08-17T06:14:07.979Z,28.46
2022-08-17T06:16:36.795Z,27.97
2022-08-17T06:19:11.970Z,27.65
2022-08-17T06:21:41.333Z,28.44
2022-08-17T06:24:16.358Z,29.17
2022-08-17T06:26:45.466Z,29.20
2022-08-17T06:29:18.554Z,28.04
2022-08-17T06:31:46.464Z,27.74
2022-08-17T06:34:13.619Z,28.43
2022-08-17T06:36:59.900Z,27.56
2022-08-17T06:39:27.479Z,28.17
2022-08-17T06:42:00.820Z,27.75
2022-08-17T06:44:43.479Z,27.10
2022-08-17T06:47:28.401Z,27.15
2022-08-17T06:50:05.685Z,28.34
2022-08-17T06:52:45.556Z,28.11
2022-08-17T06:55:19.046Z,28.58
2022-08-17T06:57:47.993Z,28.98
2022-08-17T07:00:18.703Z,28.17
2022-08-17T07:02:55.350Z,29.18
2022-08-17T07:05:25.210Z,29.14
2022-08-17T07:08:03.700Z,28.04
2022-08-17T07:10:32.531Z,28.00
2022-08-17T07:13:12.058Z,28.03
2022-08-17T07:15:42.371Z,28.19
2022-08-17T07:18:09.540Z,27.59
2022-08-17T07:20:37.522Z,27.99
2022-08-17T07:23:17.410Z,27.35
2022-08-17T07:25:44.569Z,27.50
2022-08-17T07:28:13.004Z,26.95
2022-08-17T07:30:46.865Z,26.69
2022-08-17T07:33:17.863Z,26.22
2022-08-17T07:35:45.175Z,27.24
2022-08-17T07:38:25.415Z,26.05
2022-08-17T07:41:03.231Z,27.06
2022-08-17T07:43:39.467Z,28.29
2022-08-17T07:46:34.654Z,28.90
2022-08-17T07:49:07.497Z,28.40
2022-08-17T07:51:44.156Z,28.59
2022-08-17T07:54:24.355Z,27.49
2022-08-17T07:56:52.965Z,27.76
2022-08-17T07:59:23.919Z,25.72
2022-08-17T08:01:57.439Z,26.94
2022-08-17T08:07:16.885Z,26.23
2022-08-17T08:09:45.281Z,26.01
2022-08-17T08:12:21.796Z,25.64
2022-08-17T08:14:57.771Z,26.38
2022-08-17T08:17:26.751Z,26.39
2022-08-17T08:19:54.168Z,25.73
2022-08-17T08:22:22.595Z,25.32
2022-08-17T08:24:53.136Z,26.04
2022-08-17T08:27:25.361Z,25.62
2022-08-17T08:29:55.319Z,26.74
2022-08-17T08:32:42.862Z,26.06
2022-08-17T08:35:13.277Z,26.13
2022-08-17T08:37:50.983Z,25.21
2022-08-17T08:40:23.921Z,25.10
2022-08-17T08:43:00.364Z,24.26
2022-08-17T08:45:38.191Z,24.15
2022-08-17T08:48:53.141Z,24.52
2022-08-17T08:51:28.481Z,23.18
2022-08-17T08:53:58.903Z,22.52
2022-08-17T08:57:05.004Z,21.10
2022-08-17T08:59:57.718Z,21.93
2022-08-17T09:02:34.957Z,23.39
2022-08-17T09:05:21.206Z,23.08
2022-08-17T09:07:48.274Z,22.88
2022-08-17T09:10:15.605Z,22.08
2022-08-17T09:12:42.763Z,22.93
2022-08-17T09:15:13.008Z,22.32
2022-08-17T09:17:47.395Z,22.01
2022-08-17T09:20:48.078Z,22.06
2022-08-17T09:23:37.739Z,22.56
2022-08-17T09:26:18.023Z,22.91
2022-08-17T09:28:47.017Z,23.19
2022-08-17T09:31:19.410Z,23.00
2022-08-17T09:33:48.301Z,23.59
2022-08-17T09:36:21.325Z,23.60
2022-08-17T09:39:08.166Z,23.41
2022-08-17T09:41:38.663Z,22.72
2022-08-17T09:44:35.617Z,22.95
2022-08-17T09:47:08.111Z,23.23
2022-08-17T09:49:42.507Z,23.19
2022-08-17T09:52:11.479Z,22.33
2022-08-17T09:54:42.430Z,22.89
2022-08-17T09:57:31.723Z,22.58
2022-08-17T10:00:17.943Z,22.21
2022-08-17T10:02:53.592Z,22.30
2022-08-17T10:05:27.411Z,20.86
2022-08-17T10:07:57.825Z,21.59
2022-08-17T10:10:25.582Z,21.27
2022-08-17T10:13:05.451Z,21.59
2022-08-17T10:15:52.559Z,21.71
2022-08-17T10:18:24.486Z,21.38
2022-08-17T10:21:25.292Z,21.10
2022-08-17T10:24:22.538Z,20.64
2022-08-17T10:26:56.792Z,20.97
2022-08-17T10:29:28.848Z,20.87
2022-08-17T10:32:04.633Z,20.56
2022-08-17T10:34:38.651Z,21.17
2022-08-17T10:37:26.266Z,20.94
2022-08-17T10:39:57.389Z,20.82
2022-08-17T10:42:30.834Z,21.19
2022-08-17T10:45:05.806Z,21.55
2022-08-17T10:47:55.349Z,21.20
2022-08-17T10:50:44.349Z,19.86
2022-08-17T10:53:27.136Z,20.69
2022-08-17T10:56:14.256Z,20.66
2022-08-17T10:58:55.874Z,19.99
2022-08-17T11:01:22.986Z,20.32
2022-08-17T11:03:53.425Z,18.86
2022-08-17T11:06:21.502Z,19.12
2022-08-17T11:08:51.374Z,19.78
2022-08-17T11:11:37.559Z,18.67
2022-08-17T11:14:21.381Z,19.54
2022-08-17T11:17:07.581Z,19.82
2022-08-17T11:19:43.989Z,21.62
2022-08-17T11:22:23.559Z,21.10
2022-08-17T11:24:51.412Z,22.10
2022-08-17T11:27:26.687Z,22.05
2022-08-17T11:30:02.540Z,22.00
2022-08-17T11:32:31.357Z,21.85
2022-08-17T11:35:11.999Z,22.34
2022-08-17T11:37:59.610Z,21.12
2022-08-17T11:40:28.304Z,20.70
2022-08-17T11:43:00.182Z,21.25
2022-08-17T11:45:33.776Z,21.10
2022-08-17T11:48:28.180Z,20.80
2022-08-17T11:51:17.375Z,20.57
2022-08-17T11:53:45.839Z,20.17
2022-08-17T11:56:31.789Z,20.89
2022-08-17T11:59:00.712Z,20.95
2022-08-17T12:01:28.953Z,21.11
2022-08-17T12:04:16.280Z,20.91
2022-08-17T12:06:50.685Z,21.28
2022-08-17T12:09:19.224Z,19.92
2022-08-17T12:12:12.081Z,19.48
2022-08-17T12:15:08.911Z,20.81
2022-08-17T12:17:41.184Z,19.63
2022-08-17T12:20:12.799Z,19.46
2022-08-17T12:23:01.146Z,18.69
2022-08-17T12:25:40.758Z,17.83
2022-08-17T12:28:26.565Z,17.54
2022-08-17T12:30:54.244Z,17.42
2022-08-17T12:33:25.539Z,17.58
2022-08-17T12:36:03.386Z,17.50
2022-08-17T12:38:34.402Z,17.76
2022-08-17T12:41:22.532Z,16.86
2022-08-17T12:43:56.363Z,18.01
2022-08-17T12:46:23.789Z,17.60
2022-08-17T12:48:58.925Z,18.10
2022-08-17T12:51:29.140Z,17.57
2022-08-17T12:53:56.479Z,18.14
2022-08-17T12:56:23.611Z,17.28
2022-08-17T12:58:54.075Z,15.96
2022-08-17T13:01:21.256Z,16.32
2022-08-17T13:03:49.483Z,16.27
2022-08-17T13:06:28.682Z,16.35
2022-08-17T13:08:55.855Z,14.93
2022-08-17T13:11:24.807Z,16.42
2022-08-17T13:13:54.443Z,17.14
2022-08-17T13:16:29.958Z,16.63
2022-08-17T13:19:06.717Z,16.93
2022-08-17T13:21:34.311Z,17.21
2022-08-17T13:24:07.742Z,16.39
2022-08-17T13:26:39.171Z,16.89
2022-08-17T13:29:07.697Z,16.05
2022-08-17T13:31:46.580Z,16.09
2022-08-17T13:34:23.524Z,16.45
2022-08-17T13:37:14.081Z,16.16
2022-08-17T13:39:42.035Z,15.82
2022-08-17T13:42:27.717Z,16.92
2022-08-17T13:44:55.152Z,16.49
2022-08-17T13:47:22.295Z,17.25
2022-08-17T13:49:49.576Z,16.68
2022-08-17T13:52:35.113Z,16.90
2022-08-17T13:55:07.834Z,17.25
2022-08-17T13:57:35.226Z,17.15
2022-08-17T14:00:35.453Z,17.31
2022-08-17T14:03:03.441Z,17.10
2022-08-17T14:05:30.591Z,18.35
2022-08-17T14:07:59.285Z,17.77
2022-08-17T14:10:27.093Z,17.99
2022-08-17T14:12:54.250Z,17.58
2022-08-17T14:15:22.674Z,18.06
2022-08-17T14:17:50.413Z,16.88
2022-08-17T14:20:19.951Z,17.08
2022-08-17T14:22:49.582Z,16.07
2022-08-17T14:25:19.618Z,16.21
2022-08-17T14:27:52.852Z,16.34
2022-08-17T14:30:22.247Z,17.20
2022-08-17T14:32:51.675Z,16.14
2022-08-17T14:35:19.290Z,16.36
2022-08-17T14:37:47.653Z,16.97
2022-08-17T14:40:15.643Z,16.91
2022-08-17T14:42:43.439Z,16.65
2022-08-17T14:45:30.367Z,16.89
2022-08-17T14:48:01.363Z,16.26
2022-08-17T14:50:28.777Z,15.35
2022-08-17T14:52:58.269Z,15.46
2022-08-17T14:55:26.586Z,16.29
2022-08-17T14:57:53.987Z,15.76
2022-08-17T15:00:21.187Z,16.10
2022-08-17T15:02:50.906Z,16.33
2022-08-17T15:05:18.339Z,16.34
2022-08-17T15:07:45.762Z,16.50
2022-08-17T15:10:13.425Z,16.35
2022-08-17T15:12:41.174Z,15.95
2022-08-17T15:15:12.137Z,16.41
2022-08-17T15:17:44.617Z,17.06
2022-08-17T15:20:15.140Z,16.87
2022-08-17T15:22:42.695Z,16.79
2022-08-17T15:25:10.580Z,17.02
2022-08-17T15:27:38.688Z,16.66
2022-08-17T15:30:07.266Z,17.12
2022-08-17T15:32:35.508Z,16.88
2022-08-17T15:35:05.103Z,15.98
2022-08-17T15:37:32.317Z,16.68
2022-08-17T15:40:02.634Z,17.18
2022-08-17T15:42:30.050Z,16.87
2022-08-17T15:44:57.200Z,17.24
2022-08-17T15:47:24.421Z,16.67
2022-08-17T15:49:55.459Z,16.55
2022-08-17T15:52:25.878Z,17.88
2022-08-17T15:54:54.727Z,16.78
2022-08-17T15:57:23.990Z,17.64
2022-08-17T15:59:55.140Z,16.72
2022-08-17T16:03:13.702Z,16.73
2022-08-17T16:05:22.289Z,16.83
2022-08-17T16:07:52.596Z,17.29
2022-08-17T16:10:21.050Z,17.23
2022-08-17T16:12:49.235Z,17.24
2022-08-17T16:15:16.745Z,17.23
2022-08-17T16:17:46.496Z,16.62
2022-08-17T16:20:20.804Z,16.08
2022-08-17T16:22:49.037Z,16.33
2022-08-17T16:25:18.786Z,16.84
2022-08-17T16:27:46.278Z,16.60
2022-08-17T16:30:17.774Z,16.50
2022-08-17T16:32:45.561Z,16.73
2022-08-17T16:35:14.351Z,16.60
2022-08-17T16:37:45.559Z,17.54
2022-08-17T16:40:13.604Z,17.29
2022-08-17T16:42:41.119Z,16.88
2022-08-17T16:45:08.782Z,16.52
2022-08-17T16:47:36.049Z,17.66
2022-08-17T16:50:04.585Z,17.25
2022-08-17T16:52:33.502Z,17.95
2022-08-17T16:55:01.616Z,18.45
2022-08-17T16:57:29.725Z,18.28
2022-08-17T16:59:57.286Z,18.17
2022-08-17T17:02:34.581Z,18.06
2022-08-17T17:05:11.909Z,18.02
2022-08-17T17:07:51.299Z,18.13
2022-08-17T17:10:21.316Z,18.07
2022-08-17T17:13:03.015Z,18.35
2022-08-17T17:15:39.659Z,18.29
2022-08-17T17:18:07.722Z,18.55
2022-08-17T17:20:38.166Z,18.65
2022-08-17T17:23:05.411Z,18.56
2022-08-17T17:25:52.794Z,18.58
2022-08-17T17:28:24.812Z,18.64
2022-08-17T17:31:11.213Z,18.14
2022-08-17T17:33:40.319Z,18.18
2022-08-17T17:36:27.735Z,18.41
2022-08-17T17:38:59.202Z,18.51
2022-08-17T17:41:29.035Z,18.38
2022-08-17T17:43:59.087Z,18.47
2022-08-17T17:46:33.826Z,18.78
2022-08-17T17:49:01.313Z,19.05
2022-08-17T17:52:09.418Z,18.82
2022-08-17T17:54:39.444Z,18.91
2022-08-17T17:57:09.581Z,18.95
2022-08-17T17:59:44.094Z,18.88
2022-08-17T18:02:11.469Z,18.82
2022-08-17T18:04:52.838Z,18.84
2022-08-17T18:07:23.782Z,18.98
2022-08-17T18:09:54.204Z,19.02
2022-08-17T18:12:28.793Z,18.96
2022-08-17T18:15:01.218Z,18.93
2022-08-17T18:17:29.669Z,18.97
2022-08-17T18:19:57.087Z,19.21
2022-08-17T18:22:24.466Z,18.76
2022-08-17T18:24:56.512Z,18.70
2022-08-17T18:27:34.304Z,19.12
2022-08-17T18:30:09.077Z,19.19
2022-08-17T18:32:36.800Z,19.13
2022-08-17T18:35:09.683Z,19.54
2022-08-17T18:37:37.057Z,19.30
2022-08-17T18:40:16.731Z,19.48
2022-08-17T18:42:57.494Z,19.41
2022-08-17T18:45:42.105Z,19.73
2022-08-17T18:48:24.830Z,19.70
2022-08-17T18:50:53.480Z,19.91
2022-08-17T18:53:26.788Z,19.78
2022-08-17T18:56:15.461Z,19.84
2022-08-17T18:58:43.105Z,19.82
2022-08-17T19:01:18.025Z,19.88
2022-08-17T19:03:45.987Z,20.21
2022-08-17T19:06:28.941Z,19.70
2022-08-17T19:08:56.408Z,19.66
2022-08-17T19:11:30.892Z,19.74
2022-08-17T19:14:11.074Z,19.77
2022-08-17T19:16:52.068Z,19.66
2022-08-17T19:19:30.861Z,19.84
2022-08-17T19:21:59.088Z,19.76
2022-08-17T19:24:27.401Z,20.02
2022-08-17T19:27:06.253Z,19.81
2022-08-17T19:29:38.730Z,19.89
2022-08-17T19:32:09.376Z,20.14
2022-08-17T19:34:37.923Z,19.85
2022-08-17T19:37:23.603Z,19.98
2022-08-17T19:39:55.646Z,20.06
2022-08-17T19:42:32.965Z,20.16
2022-08-17T19:45:00.339Z,20.47
2022-08-17T19:47:53.742Z,20.25
2022-08-17T19:50:38.521Z,20.40
2022-08-17T19:53:13.838Z,20.57
2022-08-17T19:55:47.893Z,20.83
2022-08-17T19:58:34.634Z,20.63
2022-08-17T20:01:02.416Z,20.68
2022-08-17T20:03:32.783Z,20.81
2022-08-17T20:06:12.591Z,20.73
2022-08-17T20:08:41.548Z,20.71
2022-08-17T20:11:09.113Z,20.80
2022-08-17T20:13:43.637Z,20.92
2022-08-17T20:16:11.345Z,21.05
2022-08-17T20:18:38.454Z,21.12
2022-08-17T20:21:31.642Z,21.14
2022-08-17T20:24:05.661Z,21.27
2022-08-17T20:26:57.870Z,21.57
2022-08-17T20:29:46.087Z,21.51
2022-08-17T20:32:15.334Z,21.54
2022-08-17T20:34:42.706Z,21.61
2022-08-17T20:37:10.955Z,21.83
2022-08-17T20:39:43.147Z,21.97
2022-08-17T20:42:22.545Z,22.02
2022-08-17T20:45:02.802Z,21.97
2022-08-17T20:48:00.775Z,21.84
2022-08-17T20:50:35.054Z,21.82
2022-08-17T20:53:03.714Z,22.10
2022-08-17T20:55:34.321Z,22.05
2022-08-17T20:58:17.030Z,22.15
2022-08-17T21:00:56.647Z,22.28
2022-08-17T21:03:24.154Z,22.21
2022-08-17T21:05:59.727Z,22.08
2022-08-17T21:08:31.411Z,22.05
2022-08-17T21:11:00.071Z,22.03
2022-08-17T21:13:40.423Z,22.26
2022-08-17T21:16:10.390Z,22.43
2022-08-17T21:18:40.161Z,22.63
2022-08-17T21:21:14.097Z,22.55
2022-08-17T21:24:02.964Z,22.52
2022-08-17T21:26:32.790Z,22.55
2022-08-17T21:29:31.105Z,22.68
2022-08-17T21:32:03.122Z,22.66
2022-08-17T21:34:33.268Z,22.87
2022-08-17T21:37:18.868Z,23.11
2022-08-17T21:39:51.294Z,23.07
2022-08-17T21:42:22.845Z,23.02
2022-08-17T21:44:50.493Z,23.16
2022-08-17T21:47:25.210Z,23.05
2022-08-17T21:49:53.114Z,23.32
2022-08-17T21:52:21.094Z,23.35
2022-08-17T21:54:49.510Z,23.24
2022-08-17T21:57:21.227Z,23.12
2022-08-17T21:59:52.678Z,23.51
2022-08-17T22:02:21.147Z,23.47
2022-08-17T22:05:01.854Z,23.76
2022-08-17T22:07:39.736Z,23.77
2022-08-17T22:10:08.571Z,24.49
2022-08-17T22:12:35.780Z,24.36
2022-08-17T22:15:06.133Z,24.48
2022-08-17T22:17:35.567Z,24.42
2022-08-17T22:20:14.996Z,24.32
2022-08-17T22:23:04.045Z,24.46
2022-08-17T22:25:32.895Z,24.32
2022-08-17T22:28:01.122Z,24.22
2022-08-17T22:30:28.335Z,24.14
2022-08-17T22:32:55.695Z,24.17
2022-08-17T22:35:42.666Z,24.09
2022-08-17T22:38:19.018Z,24.17
2022-08-17T22:40:56.842Z,24.16
2022-08-17T22:43:26.297Z,23.98
2022-08-17T22:45:54.857Z,24.02
2022-08-17T22:48:23.353Z,24.16
2022-08-17T22:51:12.725Z,24.12
2022-08-17T22:54:07.464Z,24.12
2022-08-17T22:56:53.701Z,24.14
2022-08-17T22:59:44.461Z,24.24
2022-08-17T23:02:17.001Z,24.19
2022-08-17T23:04:45.415Z,24.37
2022-08-17T23:07:12.896Z,24.27
2022-08-17T23:09:42.361Z,24.23
2022-08-17T23:12:11.582Z,24.45
2022-08-17T23:14:40.900Z,24.34
2022-08-17T23:17:08.315Z,24.41
2022-08-17T23:19:35.477Z,24.42
2022-08-17T23:22:04.304Z,24.40
2022-08-17T23:24:33.089Z,24.36
2022-08-17T23:27:00.243Z,24.53
2022-08-17T23:29:29.440Z,24.71
2022-08-17T23:31:57.940Z,25.44
2022-08-17T23:34:25.598Z,26.10
2022-08-17T23:36:53.243Z,26.14
2022-08-17T23:39:27.806Z,26.01
2022-08-17T23:41:56.976Z,25.87
2022-08-17T23:44:24.268Z,26.05
2022-08-17T23:46:51.984Z,26.12
2022-08-17T23:49:19.580Z,26.00
2022-08-17T23:51:46.763Z,25.91
2022-08-17T23:54:30.280Z,26.30
2022-08-17T23:56:57.683Z,26.18
2022-08-17T23:59:25.279Z,26.48
